Time;durP1;ratioP1;P1;durP2;ratioP2;P2;SDS_P1;SDS_P2;PMS_P1;PMS_P2;Temp;Humidity;BMP_temperature;BMP_pressure;BME280_temperature;BME280_humidity;BME280_pressure;Samples;Min_cycle;Max_cycle;Signal;HPM_P1;HPM_P2
2022/10/18 00:00:42;;;;;;;19.27;12.55;;;;;;;15.85;92.23;99774.00;5031594;28;20037;-78
2022/10/18 00:03:07;;;;;;;16.35;12.55;;;;;;;15.69;93.67;99771.22;5033690;28;20029;-78
2022/10/18 00:05:33;;;;;;;14.25;11.43;;;;;;;15.74;92.86;99778.50;5028287;28;20037;-80
2022/10/18 00:07:59;;;;;;;16.02;12.45;;;;;;;15.79;92.66;99773.16;5028539;28;20397;-76
2022/10/18 00:10:25;;;;;;;17.65;13.63;;;;;;;15.66;94.65;99773.63;5030465;28;20033;-80
2022/10/18 00:12:50;;;;;;;22.90;12.07;;;;;;;15.59;95.14;99773.03;5026740;28;20108;-77
2022/10/18 00:15:17;;;;;;;18.88;12.43;;;;;;;15.77;91.85;99780.66;5026490;28;20125;-77
2022/10/18 00:17:43;;;;;;;8.57;5.78;;;;;;;15.79;91.47;99788.50;5024907;28;20037;-76
2022/10/18 00:20:09;;;;;;;7.47;5.20;;;;;;;16.18;83.29;99787.94;5024580;28;20037;-77
2022/10/18 00:22:37;;;;;;;7.28;5.10;;;;;;;16.42;81.13;99786.41;5028874;28;20022;-76
2022/10/18 00:25:03;;;;;;;6.45;5.70;;;;;;;16.38;81.17;99788.00;5027244;28;20034;-77
2022/10/18 00:27:30;;;;;;;14.90;10.25;;;;;;;16.05;89.31;99791.09;5022595;28;20433;-77
2022/10/18 00:29:55;;;;;;;9.38;5.20;;;;;;;16.28;81.63;99787.97;5027597;28;20033;-78
2022/10/18 00:32:21;;;;;;;6.35;4.65;;;;;;;16.47;80.90;99778.34;5010621;28;20040;-79
2022/10/18 00:34:47;;;;;;;5.57;5.05;;;;;;;16.53;80.37;99786.50;5031262;28;20029;-78
2022/10/18 00:37:12;;;;;;;6.03;4.55;;;;;;;16.39;80.41;99784.25;5039110;28;20034;-79
2022/10/18 00:39:37;;;;;;;6.32;4.65;;;;;;;16.36;81.55;99792.84;5010870;28;20033;-79
2022/10/18 00:42:03;;;;;;;15.73;9.43;;;;;;;16.20;86.21;99788.50;5029830;28;20080;-77
2022/10/18 00:44:28;;;;;;;16.10;10.10;;;;;;;15.53;94.71;99777.53;5024955;28;20037;-78
2022/10/18 00:46:59;;;;;;;5.68;5.18;;;;;;;15.84;85.64;99783.13;5028611;28;20048;-76
2022/10/18 00:49:27;;;;;;;13.57;8.25;;;;;;;15.80;89.24;99777.47;5021880;28;20065;-79
2022/10/18 00:52:06;;;;;;;7.70;5.82;;;;;;;15.92;84.99;99775.41;5024482;28;20426;-77
2022/10/18 00:54:33;;;;;;;6.22;5.53;;;;;;;16.18;82.34;99779.84;5024239;28;20110;-78
2022/10/18 00:56:59;;;;;;;7.85;6.28;;;;;;;16.05;84.19;99774.94;5029183;28;20021;-79
2022/10/18 00:59:25;;;;;;;10.45;6.93;;;;;;;15.95;86.57;99774.88;5026214;28;20029;-79
2022/10/18 01:01:51;;;;;;;11.88;8.27;;;;;;;15.87;88.06;99771.84;5026752;28;20029;-80
2022/10/18 01:04:19;;;;;;;8.63;5.55;;;;;;;16.01;83.70;99783.81;5028328;28;20028;-78
2022/10/18 01:06:58;;;;;;;7.90;5.40;;;;;;;15.66;87.18;99781.69;5025379;28;20799;-79
2022/10/18 01:09:44;;;;;;;8.68;7.25;;;;;;;15.20;94.12;99779.66;5024933;28;20026;-77
2022/10/18 01:12:31;;;;;;;10.95;8.05;;;;;;;15.01;96.11;99782.72;5025793;28;20129;-77
2022/10/18 01:15:18;;;;;;;5.90;5.30;;;;;;;15.07;93.98;99780.88;5030583;28;20782;-77
2022/10/18 01:17:59;;;;;;;7.30;6.47;;;;;;;15.36;92.03;99781.41;5026751;28;20108;-78
2022/10/18 01:20:33;;;;;;;9.93;7.15;;;;;;;15.35;92.70;99779.78;5023278;28;20491;-77
2022/10/18 01:23:08;;;;;;;9.73;5.65;;;;;;;15.63;88.69;99783.00;5027435;28;20040;-77
2022/10/18 01:25:40;;;;;;;9.95;8.25;;;;;;;15.30;93.35;99777.88;5027377;28;20040;-80
2022/10/18 01:28:35;;;;;;;8.57;6.20;;;;;;;15.17;93.77;99783.69;5026049;28;20029;-78
2022/10/18 01:31:10;;;;;;;5.95;4.95;;;;;;;15.44;89.89;99783.69;5018906;28;20037;-77
2022/10/18 01:33:49;;;;;;;6.90;4.70;;;;;;;15.49;89.41;99783.69;5023607;28;20017;-78
2022/10/18 01:36:24;;;;;;;11.50;7.95;;;;;;;15.45;91.11;99786.09;5028255;28;20272;-76
2022/10/18 01:38:54;;;;;;;13.27;9.20;;;;;;;15.06;96.42;99783.81;5029679;28;20026;-77
2022/10/18 01:41:22;;;;;;;5.05;4.55;;;;;;;15.05;94.54;99777.63;5012988;28;20621;-76
2022/10/18 01:43:53;;;;;;;6.60;5.38;;;;;;;15.39;91.28;99776.34;5010527;28;20068;-75
2022/10/18 01:46:22;;;;;;;7.20;5.82;;;;;;;15.36;92.18;99779.53;5027959;28;20037;-77
2022/10/18 01:48:48;;;;;;;9.43;7.50;;;;;;;15.24;94.83;99789.66;5030896;28;20079;-77
2022/10/18 01:51:14;;;;;;;7.20;5.72;;;;;;;15.18;95.09;99779.13;5027636;28;20033;-77
2022/10/18 01:53:39;;;;;;;17.02;8.75;;;;;;;15.22;94.61;99778.34;5029605;28;20028;-76
2022/10/18 01:56:04;;;;;;;10.15;8.23;;;;;;;15.06;96.19;99776.56;5029056;28;20037;-78
2022/10/18 01:58:39;;;;;;;12.52;9.80;;;;;;;14.92;97.57;99770.78;5028105;28;20509;-77
2022/10/18 02:01:41;;;;;;;15.65;10.45;;;;;;;14.79;98.17;99765.81;5024875;28;20024;-77
2022/10/18 02:04:31;;;;;;;16.38;11.38;;;;;;;14.81;98.70;99758.31;5029675;28;20033;-76
2022/10/18 02:07:04;;;;;;;13.70;11.70;;;;;;;14.72;99.47;99753.66;5023299;28;20040;-76
2022/10/18 02:09:41;;;;;;;14.85;10.38;;;;;;;14.66;99.81;99746.59;5027756;28;20450;-77
2022/10/18 02:12:10;;;;;;;15.88;13.60;;;;;;;14.54;100.00;99745.94;5028391;28;20079;-75
2022/10/18 02:14:37;;;;;;;19.88;13.32;;;;;;;14.53;100.00;99749.66;5023888;28;20037;-75
2022/10/18 02:17:06;;;;;;;6.47;5.80;;;;;;;14.74;98.31;99741.56;5027838;28;20097;-75
2022/10/18 02:19:39;;;;;;;18.42;14.23;;;;;;;14.84;97.74;99741.69;5030421;28;20036;-77
2022/10/18 02:22:07;;;;;;;11.85;9.93;;;;;;;14.82;98.36;99735.75;5030404;28;20547;-76
2022/10/18 02:24:36;;;;;;;20.17;14.90;;;;;;;14.91;97.53;99730.72;5025342;28;20067;-76
2022/10/18 02:27:02;;;;;;;15.32;12.32;;;;;;;14.87;97.92;99733.09;5029504;28;20038;-76
2022/10/18 02:29:29;;;;;;;19.08;14.50;;;;;;;15.17;92.84;99729.06;5031932;28;20052;-78
2022/10/18 02:32:21;;;;;;;6.28;5.63;;;;;;;15.25;90.33;99724.03;5025069;28;20108;-77
2022/10/18 02:34:56;;;;;;;17.42;12.07;;;;;;;15.00;96.45;99737.28;5027391;28;20042;-78
2022/10/18 02:37:23;;;;;;;22.60;16.02;;;;;;;14.91;97.48;99733.41;5034894;28;20405;-78
2022/10/18 02:39:50;;;;;;;23.27;15.73;;;;;;;14.80;98.44;99739.75;5031333;28;20040;-78
2022/10/18 02:42:16;;;;;;;23.67;16.65;;;;;;;14.63;99.48;99722.94;5031292;28;20044;-77
2022/10/18 02:44:41;;;;;;;25.48;18.92;;;;;;;14.60;100.00;99728.78;5027503;28;20034;-79
2022/10/18 02:47:10;;;;;;;12.02;9.52;;;;;;;14.73;100.00;99718.47;5025523;28;20398;-79
2022/10/18 02:49:35;;;;;;;5.65;5.15;;;;;;;14.99;93.40;99722.19;5020534;28;20041;-81
2022/10/18 02:52:01;;;;;;;18.92;13.15;;;;;;;14.98;95.41;99725.97;5029826;28;20021;-77
2022/10/18 02:54:26;;;;;;;10.00;8.25;;;;;;;14.94;95.96;99727.50;5025210;28;20079;-80
2022/10/18 02:56:51;;;;;;;23.52;17.58;;;;;;;14.78;98.26;99718.53;5024232;28;20040;-78
2022/10/18 02:59:17;;;;;;;28.05;18.70;;;;;;;14.61;99.26;99725.84;5032577;28;20498;-79
2022/10/18 03:01:42;;;;;;;6.90;5.85;;;;;;;14.92;92.01;99708.16;5027990;28;20025;-80
2022/10/18 03:04:08;;;;;;;14.50;8.55;;;;;;;14.78;96.00;99712.31;5029188;28;20482;-78
2022/10/18 03:06:33;;;;;;;25.48;16.83;;;;;;;14.72;96.95;99716.81;5027380;28;20042;-77
2022/10/18 03:09:02;;;;;;;6.97;6.28;;;;;;;14.82;94.82;99726.88;5027954;28;20091;-77
2022/10/18 03:11:27;;;;;;;22.20;16.02;;;;;;;14.70;97.55;99727.03;5031817;28;20029;-78
2022/10/18 03:13:52;;;;;;;26.33;18.17;;;;;;;14.55;98.72;99723.34;5032120;28;20025;-79
2022/10/18 03:16:18;;;;;;;27.92;17.67;;;;;;;14.41;99.83;99730.19;5027874;28;20037;-79
2022/10/18 03:18:43;;;;;;;9.18;6.30;;;;;;;14.89;93.24;99722.94;5029276;28;20037;-77
2022/10/18 03:21:09;;;;;;;22.63;14.73;;;;;;;14.77;96.38;99718.75;5030165;28;20029;-80
2022/10/18 03:23:35;;;;;;;25.15;17.25;;;;;;;14.61;98.47;99712.41;5030478;28;20044;-78
2022/10/18 03:26:01;;;;;;;25.67;18.48;;;;;;;14.50;99.11;99710.72;5018816;28;20065;-79
2022/10/18 03:28:27;;;;;;;24.75;17.35;;;;;;;14.47;100.00;99715.75;5031183;28;20022;-77
2022/10/18 03:30:52;;;;;;;20.13;14.45;;;;;;;14.58;99.39;99715.63;5029955;28;20663;-78
2022/10/18 03:33:18;;;;;;;17.98;12.65;;;;;;;14.92;93.41;99722.41;5023037;28;20044;-76
2022/10/18 03:35:43;;;;;;;20.73;14.02;;;;;;;15.06;92.40;99721.97;5027452;28;20359;-77
2022/10/18 03:38:08;;;;;;;17.65;13.02;;;;;;;14.84;95.67;99719.38;5026902;28;20502;-77
2022/10/18 03:40:34;;;;;;;6.07;5.53;;;;;;;15.07;90.66;99726.31;5030126;28;21800;-79
2022/10/18 03:42:59;;;;;;;6.50;5.03;;;;;;;15.45;85.19;99726.09;5031179;28;20033;-81
2022/10/18 03:45:25;;;;;;;6.32;5.25;;;;;;;15.65;84.00;99726.22;5031562;28;20036;-79
2022/10/18 03:47:50;;;;;;;6.55;4.97;;;;;;;15.73;83.63;99723.03;5039815;28;20042;-79
2022/10/18 03:50:15;;;;;;;5.88;4.72;;;;;;;15.81;82.66;99725.25;5029431;28;20054;-79
2022/10/18 03:52:41;;;;;;;5.85;5.32;;;;;;;15.83;82.77;99739.28;5035165;28;20406;-81
2022/10/18 03:55:06;;;;;;;19.08;12.82;;;;;;;15.66;84.56;99727.88;5031547;28;20128;-78
2022/10/18 03:57:32;;;;;;;4.95;4.40;;;;;;;15.63;83.91;99733.75;5036596;28;20033;-79
2022/10/18 03:59:57;;;;;;;8.13;5.22;;;;;;;15.80;82.88;99726.31;5042406;28;20274;-79
2022/10/18 04:02:23;;;;;;;6.55;4.78;;;;;;;15.82;82.75;99732.25;5028825;28;21015;-80
2022/10/18 04:04:48;;;;;;;5.78;5.18;;;;;;;15.80;82.94;99720.13;5028222;28;20498;-82
2022/10/18 04:07:14;;;;;;;6.13;5.07;;;;;;;15.73;82.48;99723.03;5019441;28;20041;-82
2022/10/18 04:09:39;;;;;;;5.40;4.82;;;;;;;15.80;82.41;99725.50;5028621;28;20040;-85
2022/10/18 04:12:05;;;;;;;6.28;5.35;;;;;;;15.79;82.51;99721.22;5032164;28;20052;-82
2022/10/18 04:14:30;;;;;;;4.93;4.43;;;;;;;15.81;82.43;99732.53;5037197;28;20482;-82
2022/10/18 04:16:55;;;;;;;5.75;5.25;;;;;;;15.75;82.69;99734.34;5003728;28;20113;-79
2022/10/18 04:19:21;;;;;;;5.95;4.95;;;;;;;15.75;82.75;99735.16;5028838;28;20517;-79
2022/10/18 04:21:46;;;;;;;5.38;4.72;;;;;;;15.74;82.89;99735.44;5031249;28;20033;-82
2022/10/18 04:24:11;;;;;;;7.82;4.80;;;;;;;15.67;82.74;99735.66;5013546;28;20037;-79
2022/10/18 04:26:37;;;;;;;5.05;4.40;;;;;;;15.74;83.13;99751.59;5030332;28;20165;-81
2022/10/18 04:29:02;;;;;;;5.53;4.53;;;;;;;15.71;82.61;99736.75;5033516;28;20044;-81
2022/10/18 04:31:28;;;;;;;5.65;5.15;;;;;;;15.70;82.77;99745.91;5024579;28;20029;-79
2022/10/18 04:33:53;;;;;;;7.00;5.55;;;;;;;15.68;83.32;99748.03;5018549;28;20132;-79
2022/10/18 04:36:18;;;;;;;7.78;5.75;;;;;;;15.69;82.95;99755.06;5025340;28;20030;-78
2022/10/18 04:38:44;;;;;;;8.43;5.35;;;;;;;15.62;83.23;99750.97;5032256;28;20034;-80
2022/10/18 04:41:09;;;;;;;8.13;6.68;;;;;;;15.28;87.05;99728.09;5023196;28;20125;-77
2022/10/18 04:43:34;;;;;;;10.95;6.82;;;;;;;14.99;89.30;99739.13;5030302;28;20085;-78
2022/10/18 04:46:00;;;;;;;6.30;5.70;;;;;;;15.41;84.61;99741.09;5024876;28;20693;-77
2022/10/18 04:48:25;;;;;;;6.45;5.80;;;;;;;15.41;83.56;99730.34;5028091;28;20029;-80
2022/10/18 04:50:50;;;;;;;10.88;7.70;;;;;;;15.20;87.86;99744.72;5026210;28;20048;-78
2022/10/18 04:53:17;;;;;;;11.20;8.48;;;;;;;14.53;93.57;99744.28;5028339;28;20041;-78
2022/10/18 04:55:44;;;;;;;10.35;8.55;;;;;;;14.51;94.11;99739.19;5031945;28;20087;-76
2022/10/18 04:58:09;;;;;;;6.45;5.85;;;;;;;15.13;86.48;99739.53;5025027;28;20021;-78
2022/10/18 05:00:36;;;;;;;7.32;5.60;;;;;;;15.41;84.25;99741.91;5020975;28;20124;-78
2022/10/18 05:03:01;;;;;;;5.72;4.90;;;;;;;15.44;83.83;99743.31;5025287;28;20080;-77
2022/10/18 05:05:27;;;;;;;9.80;6.28;;;;;;;15.33;85.07;99744.28;5025383;28;20041;-76
2022/10/18 05:07:52;;;;;;;7.85;5.07;;;;;;;15.32;85.00;99746.16;5025220;28;20083;-78
2022/10/18 05:10:19;;;;;;;12.60;6.25;;;;;;;15.31;85.07;99751.78;5027156;28;20044;-77
2022/10/18 05:12:44;;;;;;;6.90;5.97;;;;;;;15.45;84.29;99744.91;5027646;28;20030;-77
2022/10/18 05:15:10;;;;;;;8.02;5.13;;;;;;;15.48;83.51;99744.41;5021173;28;20029;-76
2022/10/18 05:17:35;;;;;;;7.72;5.20;;;;;;;15.45;84.02;99737.66;5022506;28;20033;-78
2022/10/18 05:20:00;;;;;;;8.45;6.25;;;;;;;15.12;87.02;99732.53;5025947;28;20059;-77
2022/10/18 05:22:26;;;;;;;11.68;6.50;;;;;;;14.58;91.95;99721.00;5027044;28;20034;-76
2022/10/18 05:24:51;;;;;;;8.80;6.05;;;;;;;14.85;90.25;99732.53;5028444;28;20037;-76
2022/10/18 05:27:17;;;;;;;6.75;5.15;;;;;;;15.33;84.90;99728.13;5026507;28;20383;-75
2022/10/18 05:29:42;;;;;;;6.40;4.47;;;;;;;15.44;84.33;99735.25;5026196;28;20040;-77
2022/10/18 05:32:07;;;;;;;6.85;4.80;;;;;;;15.45;83.43;99721.53;5024935;28;20041;-80
2022/10/18 05:34:33;;;;;;;6.05;5.18;;;;;;;15.40;83.54;99720.63;5029969;28;20132;-77
2022/10/18 05:36:58;;;;;;;8.25;6.45;;;;;;;14.97;88.27;99719.78;5027957;28;20025;-78
2022/10/18 05:39:23;;;;;;;11.10;8.20;;;;;;;14.59;92.09;99719.91;5027025;28;20037;-78
2022/10/18 05:41:49;;;;;;;12.50;8.07;;;;;;;14.21;94.95;99717.31;5026012;28;20029;-77
2022/10/18 05:44:14;;;;;;;12.88;9.98;;;;;;;13.97;97.12;99727.50;5026108;28;20765;-77
2022/10/18 05:46:39;;;;;;;9.75;7.05;;;;;;;14.26;94.28;99720.06;5027748;28;20029;-75
2022/10/18 05:49:05;;;;;;;8.30;6.32;;;;;;;14.53;91.74;99729.00;5027313;28;20025;-76
2022/10/18 05:51:30;;;;;;;11.25;8.70;;;;;;;14.37;93.97;99732.59;5024668;28;20029;-76
2022/10/18 05:53:56;;;;;;;12.30;8.13;;;;;;;14.24;95.59;99732.94;5021371;28;20484;-78
2022/10/18 05:56:22;;;;;;;13.07;8.27;;;;;;;14.18;96.02;99729.38;5026098;28;20029;-79
2022/10/18 05:58:51;;;;;;;18.33;10.27;;;;;;;14.16;96.27;99734.19;5025208;28;20037;-76
2022/10/18 06:01:16;;;;;;;16.25;11.45;;;;;;;13.82;99.01;99723.78;5023181;28;20132;-76
2022/10/18 06:03:42;;;;;;;19.52;11.23;;;;;;;13.88;98.85;99728.97;5022048;28;20475;-76
2022/10/18 06:06:11;;;;;;;17.55;9.85;;;;;;;14.02;97.89;99718.69;5022332;28;20715;-77
2022/10/18 06:08:37;;;;;;;6.95;5.15;;;;;;;14.58;89.32;99726.38;5024682;28;20033;-75
2022/10/18 06:11:21;;;;;;;8.35;5.13;;;;;;;15.09;85.90;99729.53;5026220;28;20041;-76
2022/10/18 06:13:48;;;;;;;6.72;5.03;;;;;;;14.95;86.14;99734.53;5025789;28;20026;-78
2022/10/18 06:16:16;;;;;;;7.85;5.85;;;;;;;15.05;85.37;99750.75;5022873;28;20028;-77
2022/10/18 06:18:42;;;;;;;7.90;4.85;;;;;;;15.21;84.58;99744.44;5021082;28;20048;-78
2022/10/18 06:21:08;;;;;;;10.65;4.68;;;;;;;15.31;83.94;99741.03;5030021;28;20100;-77
2022/10/18 06:23:34;;;;;;;7.55;5.28;;;;;;;15.24;84.13;99746.63;5021856;28;20387;-76
2022/10/18 06:26:04;;;;;;;5.53;4.93;;;;;;;15.24;83.96;99749.31;5027939;28;20033;-76
2022/10/18 06:28:30;;;;;;;14.32;9.52;;;;;;;15.18;84.93;99741.47;5022633;28;20033;-76
2022/10/18 06:30:56;;;;;;;7.32;4.93;;;;;;;15.16;85.07;99757.03;5024420;28;20037;-76
2022/10/18 06:33:22;;;;;;;5.05;4.55;;;;;;;15.30;84.12;99745.59;5021037;28;20058;-75
2022/10/18 06:36:03;;;;;;;7.22;5.15;;;;;;;15.27;84.01;99751.47;5022104;28;20033;-75
2022/10/18 06:38:29;;;;;;;11.70;8.65;;;;;;;14.84;88.36;99749.75;5027643;28;20053;-75
2022/10/18 06:40:56;;;;;;;13.68;9.40;;;;;;;14.53;92.57;99752.34;5031923;28;20049;-74
2022/10/18 06:43:22;;;;;;;8.23;5.80;;;;;;;15.09;85.44;99753.75;5028359;28;20022;-76
2022/10/18 06:45:48;;;;;;;7.00;5.65;;;;;;;15.19;84.58;99756.50;5031901;28;20040;-77
2022/10/18 06:48:13;;;;;;;9.45;5.30;;;;;;;15.28;84.26;99757.66;5027432;28;20076;-77
2022/10/18 06:50:39;;;;;;;7.95;5.18;;;;;;;15.24;84.62;99764.63;5023560;28;20119;-76
2022/10/18 06:53:07;;;;;;;7.10;5.43;;;;;;;15.21;84.39;99765.97;5027561;28;20033;-75
2022/10/18 06:55:33;;;;;;;6.80;5.53;;;;;;;15.20;84.42;99774.28;5025690;28;20395;-76
2022/10/18 06:57:58;;;;;;;9.65;6.60;;;;;;;15.05;85.63;99768.78;5019538;28;20037;-76
2022/10/18 07:00:24;;;;;;;14.45;9.85;;;;;;;14.45;91.98;99760.88;5025789;28;20047;-76
2022/10/18 07:02:49;;;;;;;20.30;12.00;;;;;;;13.95;96.16;99759.16;5026233;28;20120;-76
2022/10/18 07:05:14;;;;;;;17.75;13.13;;;;;;;13.79;98.22;99748.44;5029857;28;20030;-75
2022/10/18 07:07:40;;;;;;;10.65;7.00;;;;;;;14.04;98.04;99740.75;5022176;28;20025;-75
2022/10/18 07:10:06;;;;;;;22.73;12.55;;;;;;;14.50;90.72;99737.56;5022182;28;20033;-76
2022/10/18 07:12:31;;;;;;;21.45;14.00;;;;;;;14.13;96.19;99750.00;5018385;28;20173;-76
2022/10/18 07:14:56;;;;;;;23.52;15.20;;;;;;;13.84;98.45;99745.81;5018525;28;20025;-76
2022/10/18 07:17:22;;;;;;;17.35;11.55;;;;;;;13.86;99.30;99747.22;5016146;28;20148;-75
2022/10/18 07:19:47;;;;;;;7.60;6.22;;;;;;;14.40;92.17;99747.38;5017700;28;20047;-75
2022/10/18 07:22:13;;;;;;;7.03;5.70;;;;;;;14.95;87.32;99756.03;5016174;28;20112;-76
2022/10/18 07:24:38;;;;;;;7.22;5.32;;;;;;;15.13;85.89;99754.84;5018877;28;20038;-75
2022/10/18 07:27:04;;;;;;;10.65;7.50;;;;;;;15.13;85.46;99750.28;5019513;28;20116;-76
2022/10/18 07:29:30;;;;;;;16.80;11.43;;;;;;;14.82;90.99;99759.94;5025227;28;20114;-77
2022/10/18 07:31:55;;;;;;;18.45;13.68;;;;;;;14.29;96.57;99743.75;5019450;28;20025;-76
2022/10/18 07:34:21;;;;;;;10.73;7.10;;;;;;;14.59;92.41;99754.06;5020164;28;20048;-75
2022/10/18 07:36:46;;;;;;;9.82;6.85;;;;;;;14.71;91.02;99754.72;5017932;28;20120;-75
2022/10/18 07:39:12;;;;;;;7.80;5.03;;;;;;;15.07;86.73;99756.66;5033376;28;22169;-75
2022/10/18 07:41:38;;;;;;;8.57;6.05;;;;;;;15.13;86.79;99765.63;5020602;28;20033;-76
2022/10/18 07:44:04;;;;;;;16.98;12.60;;;;;;;14.80;93.54;99770.16;5018969;28;20054;-76
2022/10/18 07:46:29;;;;;;;8.60;5.43;;;;;;;14.87;91.49;99764.56;5021991;28;20064;-76
2022/10/18 07:48:57;;;;;;;7.65;5.78;;;;;;;15.13;87.37;99773.69;5024554;28;20025;-77
2022/10/18 07:51:22;;;;;;;17.40;11.68;;;;;;;15.20;88.74;99775.06;5024688;28;20367;-75
2022/10/18 07:53:48;;;;;;;7.97;5.88;;;;;;;15.33;86.19;99785.41;5022879;28;20037;-76
2022/10/18 07:56:17;;;;;;;14.82;10.52;;;;;;;15.26;87.37;99790.22;5022572;28;20033;-77
2022/10/18 07:58:45;;;;;;;17.08;13.63;;;;;;;15.19;91.09;99794.16;5023608;28;20032;-77
2022/10/18 08:01:11;;;;;;;12.60;6.95;;;;;;;15.30;86.65;99783.25;5020571;28;20056;-77
2022/10/18 08:03:37;;;;;;;16.20;12.95;;;;;;;14.88;94.37;99788.50;5025250;28;20083;-77
2022/10/18 08:06:07;;;;;;;7.60;5.53;;;;;;;15.16;87.96;99782.03;5020975;28;20033;-77
2022/10/18 08:08:32;;;;;;;15.55;12.57;;;;;;;14.92;94.08;99786.91;5019898;28;20416;-77
2022/10/18 08:11:10;;;;;;;17.33;13.27;;;;;;;14.76;95.79;99785.16;5016045;28;20084;-76
2022/10/18 08:13:36;;;;;;;7.13;6.38;;;;;;;15.02;91.12;99786.22;5023689;28;20459;-76
2022/10/18 08:16:06;;;;;;;7.22;5.82;;;;;;;15.36;86.39;99792.97;5018819;28;20061;-74
2022/10/18 08:18:32;;;;;;;7.13;6.07;;;;;;;15.49;85.49;99791.75;5023120;28;20518;-76
2022/10/18 08:21:02;;;;;;;18.33;13.38;;;;;;;15.47;86.79;99785.84;5020306;28;20041;-74
2022/10/18 08:23:27;;;;;;;10.63;8.15;;;;;;;15.40;87.52;99785.19;5025902;28;20037;-77
2022/10/18 08:25:53;;;;;;;13.90;11.75;;;;;;;15.25;92.17;99783.19;5021740;28;20040;-75
2022/10/18 08:28:18;;;;;;;15.63;12.95;;;;;;;15.05;94.99;99779.53;5021240;28;20045;-76
2022/10/18 08:30:44;;;;;;;19.50;13.05;;;;;;;14.84;96.69;99778.50;5026284;28;20482;-73
2022/10/18 08:33:10;;;;;;;22.00;13.50;;;;;;;14.69;97.16;99789.09;5005252;28;20049;-75
2022/10/18 08:35:36;;;;;;;11.88;8.10;;;;;;;14.81;92.44;99777.13;5017625;28;20509;-75
2022/10/18 08:38:01;;;;;;;18.35;10.25;;;;;;;15.44;88.21;99783.69;5019126;28;20032;-76
2022/10/18 08:40:27;;;;;;;12.93;9.23;;;;;;;15.73;86.06;99793.84;5019905;28;20038;-75
2022/10/18 08:43:06;;;;;;;20.02;8.75;;;;;;;15.85;85.54;99782.06;5021619;28;20111;-76
2022/10/18 08:45:37;;;;;;;10.23;8.30;;;;;;;15.90;85.25;99792.88;5018508;28;20054;-74
2022/10/18 08:48:04;;;;;;;11.68;8.75;;;;;;;15.91;85.42;99800.69;5019716;28;20096;-76
2022/10/18 08:50:35;;;;;;;14.30;10.65;;;;;;;15.82;87.36;99807.63;5019728;28;20030;-76
2022/10/18 08:53:03;;;;;;;9.93;7.78;;;;;;;15.88;85.55;99811.97;5020214;28;20037;-74
2022/10/18 08:55:41;;;;;;;11.48;7.43;;;;;;;15.99;84.64;99819.03;5014500;28;20403;-75
2022/10/18 08:58:32;;;;;;;9.82;7.70;;;;;;;16.01;84.36;99816.91;5017598;28;20120;-76
2022/10/18 09:01:26;;;;;;;10.55;7.93;;;;;;;16.00;84.62;99815.28;5022420;28;20522;-76
2022/10/18 09:04:26;;;;;;;10.25;8.75;;;;;;;15.27;93.45;99821.41;5015380;28;20052;-75
2022/10/18 09:06:54;;;;;;;10.73;9.50;;;;;;;15.47;91.80;99818.94;5015438;28;20030;-76
2022/10/18 09:10:03;;;;;;;12.57;9.02;;;;;;;15.20;92.74;99815.41;5014829;28;20052;-74
2022/10/18 09:12:41;;;;;;;20.02;14.25;;;;;;;15.19;95.54;99818.38;5016342;28;21653;-75
2022/10/18 09:15:16;;;;;;;18.65;13.45;;;;;;;15.19;96.58;99815.69;5017189;28;20107;-75
2022/10/18 09:18:12;;;;;;;15.75;13.45;;;;;;;15.41;94.97;99829.88;5017103;28;20471;-74
2022/10/18 09:20:59;;;;;;;15.52;11.15;;;;;;;15.16;96.33;99840.41;5021514;28;20121;-75
2022/10/18 09:23:47;;;;;;;10.60;7.57;;;;;;;15.51;89.44;99824.59;5015137;28;20025;-76
2022/10/18 09:26:17;;;;;;;10.63;8.23;;;;;;;15.66;88.56;99820.16;5020488;28;20030;-74
2022/10/18 09:29:03;;;;;;;8.82;7.93;;;;;;;15.80;91.62;99812.47;5019690;28;20647;-75
2022/10/18 09:31:41;;;;;;;10.20;8.35;;;;;;;15.79;89.98;99828.88;5019753;28;20056;-75
2022/10/18 09:34:28;;;;;;;8.98;6.20;;;;;;;15.99;85.81;99832.50;5019568;28;20041;-77
2022/10/18 09:36:55;;;;;;;8.10;6.38;;;;;;;15.95;85.50;99827.91;5019125;28;20029;-76
2022/10/18 09:39:34;;;;;;;5.93;5.40;;;;;;;16.32;84.08;99836.75;5022392;28;20116;-74
2022/10/18 09:42:39;;;;;;;6.82;5.90;;;;;;;16.23;83.98;99833.75;5019633;28;20584;-75
2022/10/18 09:45:12;;;;;;;6.88;6.18;;;;;;;15.87;88.96;99845.38;5015507;28;20029;-77
2022/10/18 09:47:45;;;;;;;7.05;6.05;;;;;;;15.86;86.92;99827.56;5019855;28;21029;-76
2022/10/18 09:50:25;;;;;;;6.88;6.13;;;;;;;15.95;86.54;99828.72;5022953;28;20050;-76
2022/10/18 09:53:14;;;;;;;7.60;6.75;;;;;;;15.98;86.26;99828.22;5021601;28;20498;-76
2022/10/18 09:56:05;;;;;;;7.65;5.70;;;;;;;15.99;86.81;99831.72;5020363;28;20057;-77
2022/10/18 09:58:45;;;;;;;7.65;6.70;;;;;;;16.08;86.28;99833.66;5021649;28;20058;-76
2022/10/18 10:01:27;;;;;;;6.43;5.53;;;;;;;16.28;85.39;99839.16;5025525;28;20034;-75
2022/10/18 10:03:53;;;;;;;7.10;5.90;;;;;;;16.00;86.72;99836.84;5038829;28;20037;-75
2022/10/18 10:06:30;;;;;;;8.68;6.07;;;;;;;15.90;87.22;99844.03;5024143;28;20500;-76
2022/10/18 10:09:12;;;;;;;8.52;6.57;;;;;;;15.89;86.68;99851.31;5024109;28;20037;-76
2022/10/18 10:11:46;;;;;;;5.97;5.40;;;;;;;16.12;86.10;99834.75;5024997;28;20079;-77
2022/10/18 10:14:22;;;;;;;7.25;5.53;;;;;;;16.11;86.01;99840.41;5025709;28;20037;-77
2022/10/18 10:17:02;;;;;;;;;;;;;;;15.87;88.66;99842.69;5029308;28;20128;-77
2022/10/18 10:19:31;;;;;;;8.23;6.78;;;;;;;15.67;93.09;99853.28;5023289;28;19972;-75
2022/10/18 10:22:08;;;;;;;8.85;7.43;;;;;;;15.45;93.36;99847.97;5038429;28;20203;-76
2022/10/18 10:24:47;;;;;;;8.85;7.15;;;;;;;15.45;94.10;99841.78;5022967;28;20030;-77
2022/10/18 10:27:23;;;;;;;6.50;5.80;;;;;;;15.70;90.75;99845.50;5018943;28;20064;-77
2022/10/18 10:29:55;;;;;;;7.05;6.13;;;;;;;15.64;93.34;99841.13;5035402;28;20022;-77
2022/10/18 10:32:24;;;;;;;6.25;5.65;;;;;;;16.13;88.76;99832.88;5020020;28;20405;-77
2022/10/18 10:34:50;;;;;;;6.72;5.13;;;;;;;16.15;88.62;99833.41;5024811;28;20096;-76
2022/10/18 10:37:26;;;;;;;6.28;5.43;;;;;;;16.08;89.58;99836.34;5007466;28;20034;-77
2022/10/18 10:40:10;;;;;;;5.47;4.95;;;;;;;16.07;90.58;99842.81;5011398;28;20037;-77
2022/10/18 10:42:52;;;;;;;5.40;4.75;;;;;;;16.29;88.43;99851.56;5011899;28;21442;-77
2022/10/18 10:45:20;;;;;;;5.70;4.43;;;;;;;16.35;87.63;99845.13;5019002;28;20100;-76
2022/10/18 10:47:46;;;;;;;5.50;5.00;;;;;;;16.41;88.01;99854.03;5014472;28;20025;-77
2022/10/18 10:50:13;;;;;;;5.65;5.03;;;;;;;16.43;89.24;99850.03;5017086;28;20044;-75
2022/10/18 10:52:40;;;;;;;8.77;7.35;;;;;;;16.45;89.78;99850.56;5012727;28;20042;-76
2022/10/18 10:55:17;;;;;;;9.05;7.60;;;;;;;16.25;90.75;99842.38;5012205;28;20951;-76
2022/10/18 10:57:45;;;;;;;7.88;5.28;;;;;;;16.40;88.80;99849.75;5013093;28;20052;-77
2022/10/18 11:00:43;;;;;;;7.25;5.38;;;;;;;16.41;88.42;99854.03;5015954;28;20036;-79
2022/10/18 11:03:18;;;;;;;7.57;5.50;;;;;;;16.54;87.70;99850.91;5015058;28;21254;-74
2022/10/18 11:05:51;;;;;;;5.70;5.10;;;;;;;16.40;88.09;99855.91;5016361;28;20057;-76
2022/10/18 11:08:29;;;;;;;6.03;5.40;;;;;;;16.21;89.47;99849.34;5017973;28;20038;-75
2022/10/18 11:11:25;;;;;;;5.72;5.00;;;;;;;16.36;88.83;99843.22;5014887;28;20061;-75
2022/10/18 11:13:58;;;;;;;4.97;4.47;;;;;;;16.63;87.19;99843.94;5015074;28;20036;-77
2022/10/18 11:16:50;;;;;;;5.30;4.82;;;;;;;16.58;87.13;99845.81;5016094;28;20025;-75
2022/10/18 11:19:33;;;;;;;7.43;6.03;;;;;;;16.43;88.30;99841.13;5018092;28;20041;-77
2022/10/18 11:22:03;;;;;;;6.93;5.63;;;;;;;16.69;86.31;99842.88;5012260;28;20037;-78
2022/10/18 11:24:29;;;;;;;5.65;4.97;;;;;;;16.74;86.09;99836.72;5012427;28;20029;-77
2022/10/18 11:27:08;;;;;;;5.63;4.45;;;;;;;16.79;85.93;99828.63;5012370;28;20042;-75
2022/10/18 11:30:26;;;;;;;5.43;4.90;;;;;;;16.72;85.97;99838.84;5012176;28;20398;-77
2022/10/18 11:33:09;;;;;;;8.52;5.78;;;;;;;16.54;87.96;99840.13;5015866;28;20052;-75
2022/10/18 11:36:03;;;;;;;6.15;5.55;;;;;;;16.70;87.33;99844.53;5014605;28;20258;-75
2022/10/18 11:38:41;;;;;;;7.28;5.60;;;;;;;16.88;86.61;99845.94;5014880;28;20466;-75
2022/10/18 11:41:18;;;;;;;5.70;5.10;;;;;;;16.97;86.44;99841.66;5012659;28;20030;-80
2022/10/18 11:43:49;;;;;;;8.55;5.38;;;;;;;16.79;87.49;99829.47;5012809;28;20489;-76